sensor_id;sensor_type;location;lat;lon;timestamp;P1;durP1;ratioP1;P2;durP2;ratioP2
31764;SDS011;18338;53.240;8.798;2024-02-15T00:00:53;15.35;;;12.65;;
31764;SDS011;18338;53.240;8.798;2024-02-15T00:03:20;16.30;;;11.82;;
31764;SDS011;18338;53.240;8.798;2024-02-15T00:05:47;19.02;;;14.48;;
31764;SDS011;18338;53.240;8.798;2024-02-15T00:08:14;15.18;;;11.65;;
31764;SDS011;18338;53.240;8.798;2024-02-15T00:10:41;16.60;;;12.48;;
31764;SDS011;18338;53.240;8.798;2024-02-15T00:13:08;16.17;;;11.68;;
31764;SDS011;18338;53.240;8.798;2024-02-15T00:15:35;14.82;;;11.52;;
31764;SDS011;18338;53.240;8.798;2024-02-15T00:18:03;16.27;;;12.10;;
31764;SDS011;18338;53.240;8.798;2024-02-15T00:20:30;15.32;;;11.43;;
31764;SDS011;18338;53.240;8.798;2024-02-15T00:23:00;16.70;;;12.30;;
31764;SDS011;18338;53.240;8.798;2024-02-15T00:25:27;16.60;;;13.27;;
31764;SDS011;18338;53.240;8.798;2024-02-15T00:27:54;16.60;;;11.80;;
31764;SDS011;18338;53.240;8.798;2024-02-15T00:30:20;17.95;;;12.73;;
31764;SDS011;18338;53.240;8.798;2024-02-15T00:32:47;16.92;;;12.45;;
31764;SDS011;18338;53.240;8.798;2024-02-15T00:35:15;18.05;;;13.48;;
31764;SDS011;18338;53.240;8.798;2024-02-15T00:37:43;19.95;;;16.08;;
31764;SDS011;18338;53.240;8.798;2024-02-15T00:40:10;17.30;;;13.45;;
31764;SDS011;18338;53.240;8.798;2024-02-15T00:42:37;19.30;;;14.18;;
31764;SDS011;18338;53.240;8.798;2024-02-15T00:45:05;22.83;;;19.17;;
31764;SDS011;18338;53.240;8.798;2024-02-15T00:47:34;20.70;;;15.07;;
31764;SDS011;18338;53.240;8.798;2024-02-15T00:50:02;18.67;;;13.68;;
31764;SDS011;18338;53.240;8.798;2024-02-15T00:52:29;20.58;;;14.57;;
31764;SDS011;18338;53.240;8.798;2024-02-15T00:54:57;19.58;;;13.10;;
31764;SDS011;18338;53.240;8.798;2024-02-15T00:57:23;20.33;;;13.52;;
31764;SDS011;18338;53.240;8.798;2024-02-15T00:59:50;19.63;;;13.93;;
31764;SDS011;18338;53.240;8.798;2024-02-15T01:02:18;19.35;;;13.13;;
31764;SDS011;18338;53.240;8.798;2024-02-15T01:04:45;21.58;;;14.77;;
31764;SDS011;18338;53.240;8.798;2024-02-15T01:07:12;19.92;;;13.63;;
31764;SDS011;18338;53.240;8.798;2024-02-15T01:09:39;21.45;;;13.70;;
31764;SDS011;18338;53.240;8.798;2024-02-15T01:12:06;22.50;;;14.05;;
31764;SDS011;18338;53.240;8.798;2024-02-15T01:14:33;20.25;;;14.55;;
31764;SDS011;18338;53.240;8.798;2024-02-15T01:17:01;24.52;;;18.17;;
31764;SDS011;18338;53.240;8.798;2024-02-15T01:19:27;20.38;;;14.40;;
31764;SDS011;18338;53.240;8.798;2024-02-15T01:21:54;20.00;;;13.50;;
31764;SDS011;18338;53.240;8.798;2024-02-15T01:24:22;21.80;;;14.20;;
31764;SDS011;18338;53.240;8.798;2024-02-15T01:26:48;21.08;;;14.18;;
31764;SDS011;18338;53.240;8.798;2024-02-15T01:29:15;21.63;;;13.23;;
31764;SDS011;18338;53.240;8.798;2024-02-15T01:31:42;19.98;;;13.43;;
31764;SDS011;18338;53.240;8.798;2024-02-15T01:34:09;18.88;;;13.05;;
31764;SDS011;18338;53.240;8.798;2024-02-15T01:36:36;21.85;;;14.50;;
31764;SDS011;18338;53.240;8.798;2024-02-15T01:39:03;23.55;;;15.38;;
31764;SDS011;18338;53.240;8.798;2024-02-15T01:41:30;24.35;;;14.27;;
31764;SDS011;18338;53.240;8.798;2024-02-15T01:43:58;21.92;;;14.35;;
31764;SDS011;18338;53.240;8.798;2024-02-15T01:46:24;20.48;;;14.27;;
31764;SDS011;18338;53.240;8.798;2024-02-15T01:48:51;20.60;;;13.38;;
31764;SDS011;18338;53.240;8.798;2024-02-15T01:51:18;22.20;;;14.10;;
31764;SDS011;18338;53.240;8.798;2024-02-15T01:53:45;23.77;;;14.02;;
31764;SDS011;18338;53.240;8.798;2024-02-15T01:56:13;22.83;;;13.55;;
31764;SDS011;18338;53.240;8.798;2024-02-15T01:58:41;22.15;;;13.77;;
31764;SDS011;18338;53.240;8.798;2024-02-15T02:01:09;20.73;;;12.07;;
31764;SDS011;18338;53.240;8.798;2024-02-15T02:03:38;22.30;;;14.35;;
31764;SDS011;18338;53.240;8.798;2024-02-15T02:06:05;25.63;;;15.25;;
31764;SDS011;18338;53.240;8.798;2024-02-15T02:08:33;21.90;;;13.80;;
31764;SDS011;18338;53.240;8.798;2024-02-15T02:11:00;25.90;;;15.52;;
31764;SDS011;18338;53.240;8.798;2024-02-15T02:13:28;23.77;;;14.95;;
31764;SDS011;18338;53.240;8.798;2024-02-15T02:15:56;25.63;;;14.88;;
31764;SDS011;18338;53.240;8.798;2024-02-15T02:18:23;24.50;;;16.63;;
31764;SDS011;18338;53.240;8.798;2024-02-15T02:20:50;24.40;;;14.90;;
31764;SDS011;18338;53.240;8.798;2024-02-15T02:23:17;23.75;;;14.55;;
31764;SDS011;18338;53.240;8.798;2024-02-15T02:25:49;25.95;;;14.85;;
31764;SDS011;18338;53.240;8.798;2024-02-15T02:28:16;25.55;;;15.23;;
31764;SDS011;18338;53.240;8.798;2024-02-15T02:30:43;24.55;;;15.05;;
31764;SDS011;18338;53.240;8.798;2024-02-15T02:33:12;24.67;;;15.23;;
31764;SDS011;18338;53.240;8.798;2024-02-15T02:35:46;24.92;;;14.32;;
31764;SDS011;18338;53.240;8.798;2024-02-15T02:38:14;26.25;;;13.50;;
31764;SDS011;18338;53.240;8.798;2024-02-15T02:40:41;22.80;;;14.70;;
31764;SDS011;18338;53.240;8.798;2024-02-15T02:43:08;22.90;;;13.70;;
31764;SDS011;18338;53.240;8.798;2024-02-15T02:45:36;24.90;;;13.95;;
31764;SDS011;18338;53.240;8.798;2024-02-15T02:48:03;20.40;;;12.85;;
31764;SDS011;18338;53.240;8.798;2024-02-15T02:50:31;22.80;;;13.20;;
31764;SDS011;18338;53.240;8.798;2024-02-15T02:52:58;22.50;;;13.80;;
31764;SDS011;18338;53.240;8.798;2024-02-15T02:55:25;26.17;;;13.25;;
31764;SDS011;18338;53.240;8.798;2024-02-15T02:57:54;24.83;;;14.60;;
31764;SDS011;18338;53.240;8.798;2024-02-15T03:00:21;21.38;;;12.98;;
31764;SDS011;18338;53.240;8.798;2024-02-15T03:02:48;22.35;;;13.45;;
31764;SDS011;18338;53.240;8.798;2024-02-15T03:05:16;24.77;;;15.07;;
31764;SDS011;18338;53.240;8.798;2024-02-15T03:07:43;23.77;;;14.43;;
31764;SDS011;18338;53.240;8.798;2024-02-15T03:10:10;27.17;;;15.10;;
31764;SDS011;18338;53.240;8.798;2024-02-15T03:12:41;24.50;;;14.07;;
31764;SDS011;18338;53.240;8.798;2024-02-15T03:15:14;25.73;;;14.52;;
31764;SDS011;18338;53.240;8.798;2024-02-15T03:17:42;23.92;;;14.18;;
31764;SDS011;18338;53.240;8.798;2024-02-15T03:20:10;26.63;;;14.95;;
31764;SDS011;18338;53.240;8.798;2024-02-15T03:22:53;27.30;;;14.88;;
31764;SDS011;18338;53.240;8.798;2024-02-15T03:25:20;26.63;;;14.85;;
31764;SDS011;18338;53.240;8.798;2024-02-15T03:27:54;26.92;;;15.52;;
31764;SDS011;18338;53.240;8.798;2024-02-15T03:30:23;25.00;;;15.02;;
31764;SDS011;18338;53.240;8.798;2024-02-15T03:32:52;24.58;;;14.48;;
31764;SDS011;18338;53.240;8.798;2024-02-15T03:35:21;23.92;;;15.32;;
31764;SDS011;18338;53.240;8.798;2024-02-15T03:37:50;26.55;;;15.15;;
31764;SDS011;18338;53.240;8.798;2024-02-15T03:40:18;25.20;;;14.15;;
31764;SDS011;18338;53.240;8.798;2024-02-15T03:42:46;25.40;;;14.48;;
31764;SDS011;18338;53.240;8.798;2024-02-15T03:45:13;25.70;;;14.40;;
31764;SDS011;18338;53.240;8.798;2024-02-15T03:47:40;23.73;;;14.02;;
31764;SDS011;18338;53.240;8.798;2024-02-15T03:50:07;24.05;;;13.80;;
31764;SDS011;18338;53.240;8.798;2024-02-15T03:52:38;26.08;;;14.13;;
31764;SDS011;18338;53.240;8.798;2024-02-15T03:55:05;21.42;;;13.95;;
31764;SDS011;18338;53.240;8.798;2024-02-15T03:57:34;25.10;;;14.63;;
31764;SDS011;18338;53.240;8.798;2024-02-15T04:00:01;24.70;;;14.45;;
31764;SDS011;18338;53.240;8.798;2024-02-15T04:02:30;24.05;;;13.27;;
31764;SDS011;18338;53.240;8.798;2024-02-15T04:04:57;22.25;;;14.00;;
31764;SDS011;18338;53.240;8.798;2024-02-15T04:07:24;22.85;;;13.48;;
31764;SDS011;18338;53.240;8.798;2024-02-15T04:09:53;23.67;;;12.82;;
31764;SDS011;18338;53.240;8.798;2024-02-15T04:12:20;23.92;;;14.20;;
31764;SDS011;18338;53.240;8.798;2024-02-15T04:14:48;24.40;;;14.48;;
31764;SDS011;18338;53.240;8.798;2024-02-15T04:17:15;25.05;;;14.52;;
31764;SDS011;18338;53.240;8.798;2024-02-15T04:19:46;23.65;;;14.25;;
31764;SDS011;18338;53.240;8.798;2024-02-15T04:22:14;25.67;;;15.32;;
31764;SDS011;18338;53.240;8.798;2024-02-15T04:24:43;23.20;;;14.25;;
31764;SDS011;18338;53.240;8.798;2024-02-15T04:27:12;21.63;;;14.45;;
31764;SDS011;18338;53.240;8.798;2024-02-15T04:29:40;22.92;;;14.43;;
31764;SDS011;18338;53.240;8.798;2024-02-15T04:32:10;23.50;;;14.25;;
31764;SDS011;18338;53.240;8.798;2024-02-15T04:34:41;21.88;;;14.00;;
31764;SDS011;18338;53.240;8.798;2024-02-15T04:37:08;24.85;;;15.23;;
31764;SDS011;18338;53.240;8.798;2024-02-15T04:39:38;26.75;;;14.93;;
31764;SDS011;18338;53.240;8.798;2024-02-15T04:42:04;27.17;;;15.85;;
31764;SDS011;18338;53.240;8.798;2024-02-15T04:44:34;21.63;;;14.43;;
31764;SDS011;18338;53.240;8.798;2024-02-15T04:47:02;25.23;;;15.70;;
31764;SDS011;18338;53.240;8.798;2024-02-15T04:49:30;24.90;;;14.13;;
31764;SDS011;18338;53.240;8.798;2024-02-15T04:51:57;23.13;;;14.13;;
31764;SDS011;18338;53.240;8.798;2024-02-15T04:54:26;23.23;;;14.68;;
31764;SDS011;18338;53.240;8.798;2024-02-15T04:56:53;23.08;;;14.73;;
31764;SDS011;18338;53.240;8.798;2024-02-15T04:59:20;21.77;;;13.85;;
31764;SDS011;18338;53.240;8.798;2024-02-15T05:01:52;21.55;;;13.02;;
31764;SDS011;18338;53.240;8.798;2024-02-15T05:04:19;23.10;;;14.45;;
31764;SDS011;18338;53.240;8.798;2024-02-15T05:06:46;20.27;;;13.00;;
31764;SDS011;18338;53.240;8.798;2024-02-15T05:09:13;19.25;;;13.32;;
31764;SDS011;18338;53.240;8.798;2024-02-15T05:11:39;21.58;;;13.00;;
31764;SDS011;18338;53.240;8.798;2024-02-15T05:14:07;20.52;;;13.32;;
31764;SDS011;18338;53.240;8.798;2024-02-15T05:16:37;22.25;;;13.45;;
31764;SDS011;18338;53.240;8.798;2024-02-15T05:19:09;18.95;;;12.57;;
31764;SDS011;18338;53.240;8.798;2024-02-15T05:21:37;18.05;;;12.13;;
31764;SDS011;18338;53.240;8.798;2024-02-15T05:24:05;20.90;;;13.00;;
31764;SDS011;18338;53.240;8.798;2024-02-15T05:26:32;22.10;;;12.65;;
31764;SDS011;18338;53.240;8.798;2024-02-15T05:28:59;21.70;;;12.77;;
31764;SDS011;18338;53.240;8.798;2024-02-15T05:31:25;18.85;;;12.55;;
31764;SDS011;18338;53.240;8.798;2024-02-15T05:33:53;22.55;;;12.77;;
31764;SDS011;18338;53.240;8.798;2024-02-15T05:36:21;19.88;;;12.27;;
31764;SDS011;18338;53.240;8.798;2024-02-15T05:38:50;18.02;;;12.57;;
31764;SDS011;18338;53.240;8.798;2024-02-15T05:41:19;17.73;;;12.30;;
31764;SDS011;18338;53.240;8.798;2024-02-15T05:43:47;21.80;;;12.32;;
31764;SDS011;18338;53.240;8.798;2024-02-15T05:46:20;21.38;;;12.52;;
31764;SDS011;18338;53.240;8.798;2024-02-15T05:48:50;20.90;;;12.95;;
31764;SDS011;18338;53.240;8.798;2024-02-15T05:51:22;18.73;;;12.52;;
31764;SDS011;18338;53.240;8.798;2024-02-15T05:59:01;20.75;;;13.23;;
31764;SDS011;18338;53.240;8.798;2024-02-15T06:01:42;21.55;;;12.88;;
31764;SDS011;18338;53.240;8.798;2024-02-15T06:04:09;24.13;;;14.32;;
31764;SDS011;18338;53.240;8.798;2024-02-15T06:06:36;20.85;;;13.43;;
31764;SDS011;18338;53.240;8.798;2024-02-15T06:09:04;23.33;;;14.15;;
31764;SDS011;18338;53.240;8.798;2024-02-15T06:11:31;22.10;;;13.55;;
31764;SDS011;18338;53.240;8.798;2024-02-15T06:13:57;20.23;;;13.93;;
31764;SDS011;18338;53.240;8.798;2024-02-15T06:16:24;23.30;;;14.10;;
31764;SDS011;18338;53.240;8.798;2024-02-15T06:18:51;24.42;;;15.10;;
31764;SDS011;18338;53.240;8.798;2024-02-15T06:21:18;23.02;;;15.30;;
31764;SDS011;18338;53.240;8.798;2024-02-15T06:23:46;24.25;;;14.65;;
31764;SDS011;18338;53.240;8.798;2024-02-15T06:26:16;28.73;;;15.90;;
31764;SDS011;18338;53.240;8.798;2024-02-15T06:28:43;25.23;;;15.25;;
31764;SDS011;18338;53.240;8.798;2024-02-15T06:31:29;27.15;;;15.45;;
31764;SDS011;18338;53.240;8.798;2024-02-15T06:34:15;27.50;;;16.45;;
31764;SDS011;18338;53.240;8.798;2024-02-15T06:37:00;28.73;;;16.80;;
31764;SDS011;18338;53.240;8.798;2024-02-15T06:39:46;26.95;;;16.88;;
31764;SDS011;18338;53.240;8.798;2024-02-15T06:42:14;33.35;;;19.13;;
31764;SDS011;18338;53.240;8.798;2024-02-15T06:44:44;36.90;;;19.75;;
31764;SDS011;18338;53.240;8.798;2024-02-15T06:47:12;40.08;;;22.88;;
31764;SDS011;18338;53.240;8.798;2024-02-15T06:49:39;40.67;;;21.67;;
31764;SDS011;18338;53.240;8.798;2024-02-15T06:52:07;40.72;;;21.45;;
31764;SDS011;18338;53.240;8.798;2024-02-15T06:54:34;44.03;;;21.50;;
31764;SDS011;18338;53.240;8.798;2024-02-15T06:57:04;48.08;;;23.23;;
31764;SDS011;18338;53.240;8.798;2024-02-15T06:59:32;45.75;;;22.65;;
31764;SDS011;18338;53.240;8.798;2024-02-15T07:01:59;46.15;;;24.10;;
31764;SDS011;18338;53.240;8.798;2024-02-15T07:04:27;47.30;;;24.55;;
31764;SDS011;18338;53.240;8.798;2024-02-15T07:06:54;46.65;;;22.90;;
31764;SDS011;18338;53.240;8.798;2024-02-15T07:09:22;52.08;;;23.38;;
31764;SDS011;18338;53.240;8.798;2024-02-15T07:11:51;48.65;;;23.55;;
31764;SDS011;18338;53.240;8.798;2024-02-15T07:14:18;49.03;;;23.08;;
31764;SDS011;18338;53.240;8.798;2024-02-15T07:16:46;48.35;;;23.30;;
31764;SDS011;18338;53.240;8.798;2024-02-15T07:19:13;47.60;;;22.40;;
31764;SDS011;18338;53.240;8.798;2024-02-15T07:21:42;44.28;;;22.55;;
31764;SDS011;18338;53.240;8.798;2024-02-15T07:24:08;44.97;;;23.20;;
31764;SDS011;18338;53.240;8.798;2024-02-15T07:26:39;45.95;;;23.70;;
31764;SDS011;18338;53.240;8.798;2024-02-15T07:29:06;45.95;;;23.02;;
31764;SDS011;18338;53.240;8.798;2024-02-15T07:31:34;46.10;;;23.00;;
31764;SDS011;18338;53.240;8.798;2024-02-15T07:34:02;42.03;;;21.95;;
31764;SDS011;18338;53.240;8.798;2024-02-15T07:36:32;41.35;;;21.35;;
31764;SDS011;18338;53.240;8.798;2024-02-15T07:38:59;41.85;;;21.33;;
31764;SDS011;18338;53.240;8.798;2024-02-15T07:41:30;41.88;;;21.60;;
31764;SDS011;18338;53.240;8.798;2024-02-15T07:44:00;40.05;;;20.98;;
31764;SDS011;18338;53.240;8.798;2024-02-15T07:46:27;43.33;;;22.25;;
31764;SDS011;18338;53.240;8.798;2024-02-15T07:48:55;37.33;;;21.30;;
31764;SDS011;18338;53.240;8.798;2024-02-15T07:51:22;39.05;;;20.23;;
31764;SDS011;18338;53.240;8.798;2024-02-15T07:53:49;39.05;;;21.52;;
31764;SDS011;18338;53.240;8.798;2024-02-15T07:56:16;39.53;;;21.88;;
31764;SDS011;18338;53.240;8.798;2024-02-15T07:58:45;36.80;;;20.70;;
31764;SDS011;18338;53.240;8.798;2024-02-15T08:01:19;42.70;;;22.50;;
31764;SDS011;18338;53.240;8.798;2024-02-15T08:03:51;38.42;;;26.25;;
31764;SDS011;18338;53.240;8.798;2024-02-15T08:06:20;37.47;;;24.40;;
31764;SDS011;18338;53.240;8.798;2024-02-15T08:08:52;34.72;;;20.95;;
31764;SDS011;18338;53.240;8.798;2024-02-15T08:11:19;41.63;;;23.27;;
31764;SDS011;18338;53.240;8.798;2024-02-15T08:13:50;37.88;;;22.65;;
31764;SDS011;18338;53.240;8.798;2024-02-15T08:16:21;36.80;;;23.10;;
31764;SDS011;18338;53.240;8.798;2024-02-15T08:18:49;39.72;;;25.23;;
31764;SDS011;18338;53.240;8.798;2024-02-15T08:21:27;37.63;;;25.38;;
31764;SDS011;18338;53.240;8.798;2024-02-15T08:23:56;41.47;;;27.42;;
31764;SDS011;18338;53.240;8.798;2024-02-15T08:26:23;37.00;;;24.52;;
31764;SDS011;18338;53.240;8.798;2024-02-15T08:28:49;45.38;;;27.33;;
31764;SDS011;18338;53.240;8.798;2024-02-15T08:31:16;41.38;;;30.85;;
31764;SDS011;18338;53.240;8.798;2024-02-15T08:33:44;45.13;;;32.30;;
31764;SDS011;18338;53.240;8.798;2024-02-15T08:36:12;36.83;;;25.75;;
31764;SDS011;18338;53.240;8.798;2024-02-15T08:38:42;34.75;;;23.38;;
31764;SDS011;18338;53.240;8.798;2024-02-15T08:41:11;36.88;;;27.05;;
31764;SDS011;18338;53.240;8.798;2024-02-15T08:43:38;35.30;;;22.55;;
31764;SDS011;18338;53.240;8.798;2024-02-15T08:46:07;40.95;;;28.30;;
31764;SDS011;18338;53.240;8.798;2024-02-15T08:48:34;41.20;;;29.08;;
31764;SDS011;18338;53.240;8.798;2024-02-15T08:51:02;46.17;;;32.83;;
31764;SDS011;18338;53.240;8.798;2024-02-15T08:53:29;37.28;;;22.80;;
31764;SDS011;18338;53.240;8.798;2024-02-15T08:55:58;34.17;;;24.60;;
31764;SDS011;18338;53.240;8.798;2024-02-15T08:58:26;30.95;;;22.33;;
31764;SDS011;18338;53.240;8.798;2024-02-15T09:00:53;29.70;;;21.95;;
31764;SDS011;18338;53.240;8.798;2024-02-15T09:03:20;29.60;;;21.73;;
31764;SDS011;18338;53.240;8.798;2024-02-15T09:05:47;30.58;;;20.95;;
31764;SDS011;18338;53.240;8.798;2024-02-15T09:08:14;28.48;;;20.45;;
31764;SDS011;18338;53.240;8.798;2024-02-15T09:10:48;27.77;;;19.60;;
31764;SDS011;18338;53.240;8.798;2024-02-15T09:13:16;29.73;;;20.67;;
31764;SDS011;18338;53.240;8.798;2024-02-15T09:15:43;29.60;;;20.40;;
31764;SDS011;18338;53.240;8.798;2024-02-15T09:18:10;31.73;;;24.35;;
31764;SDS011;18338;53.240;8.798;2024-02-15T09:20:37;26.75;;;19.05;;
31764;SDS011;18338;53.240;8.798;2024-02-15T09:23:11;24.27;;;19.15;;
31764;SDS011;18338;53.240;8.798;2024-02-15T09:25:38;23.90;;;18.05;;
31764;SDS011;18338;53.240;8.798;2024-02-15T09:28:05;27.95;;;20.55;;
31764;SDS011;18338;53.240;8.798;2024-02-15T09:30:32;23.75;;;18.70;;
31764;SDS011;18338;53.240;8.798;2024-02-15T09:33:01;25.48;;;19.30;;
31764;SDS011;18338;53.240;8.798;2024-02-15T09:35:31;25.27;;;19.27;;
31764;SDS011;18338;53.240;8.798;2024-02-15T09:37:58;29.02;;;22.90;;
31764;SDS011;18338;53.240;8.798;2024-02-15T09:40:25;25.88;;;19.30;;
31764;SDS011;18338;53.240;8.798;2024-02-15T09:42:55;27.10;;;20.48;;
31764;SDS011;18338;53.240;8.798;2024-02-15T09:45:22;32.97;;;22.35;;
31764;SDS011;18338;53.240;8.798;2024-02-15T09:47:51;27.80;;;20.95;;
31764;SDS011;18338;53.240;8.798;2024-02-15T09:50:19;27.27;;;21.08;;
31764;SDS011;18338;53.240;8.798;2024-02-15T09:52:51;28.52;;;20.98;;
31764;SDS011;18338;53.240;8.798;2024-02-15T09:55:19;29.23;;;21.50;;
31764;SDS011;18338;53.240;8.798;2024-02-15T09:57:49;31.15;;;21.48;;
31764;SDS011;18338;53.240;8.798;2024-02-15T10:00:16;31.48;;;23.15;;
31764;SDS011;18338;53.240;8.798;2024-02-15T10:02:44;31.33;;;23.08;;
31764;SDS011;18338;53.240;8.798;2024-02-15T10:05:17;33.72;;;23.30;;
31764;SDS011;18338;53.240;8.798;2024-02-15T10:07:44;34.65;;;22.17;;
31764;SDS011;18338;53.240;8.798;2024-02-15T10:10:19;33.03;;;22.67;;
31764;SDS011;18338;53.240;8.798;2024-02-15T10:12:50;34.08;;;24.52;;
31764;SDS011;18338;53.240;8.798;2024-02-15T10:15:39;31.70;;;23.08;;
31764;SDS011;18338;53.240;8.798;2024-02-15T10:18:11;34.05;;;23.02;;
31764;SDS011;18338;53.240;8.798;2024-02-15T10:20:39;38.28;;;29.30;;
31764;SDS011;18338;53.240;8.798;2024-02-15T10:23:11;37.90;;;29.35;;
31764;SDS011;18338;53.240;8.798;2024-02-15T10:25:40;45.70;;;34.05;;
31764;SDS011;18338;53.240;8.798;2024-02-15T10:28:08;37.22;;;27.10;;
31764;SDS011;18338;53.240;8.798;2024-02-15T10:30:42;42.97;;;28.52;;
31764;SDS011;18338;53.240;8.798;2024-02-15T10:33:45;39.08;;;25.98;;
31764;SDS011;18338;53.240;8.798;2024-02-15T10:36:06;38.00;;;24.63;;
31764;SDS011;18338;53.240;8.798;2024-02-15T10:38:35;34.15;;;25.92;;
31764;SDS011;18338;53.240;8.798;2024-02-15T10:41:06;35.53;;;26.42;;
31764;SDS011;18338;53.240;8.798;2024-02-15T10:43:33;39.65;;;29.13;;
31764;SDS011;18338;53.240;8.798;2024-02-15T10:46:01;38.65;;;27.52;;
31764;SDS011;18338;53.240;8.798;2024-02-15T10:48:29;35.75;;;26.40;;
31764;SDS011;18338;53.240;8.798;2024-02-15T10:50:56;40.97;;;28.75;;
31764;SDS011;18338;53.240;8.798;2024-02-15T10:53:30;30.63;;;23.00;;
31764;SDS011;18338;53.240;8.798;2024-02-15T10:59:19;32.42;;;23.23;;
31764;SDS011;18338;53.240;8.798;2024-02-15T11:01:46;34.83;;;25.23;;
31764;SDS011;18338;53.240;8.798;2024-02-15T11:04:17;36.13;;;25.73;;
31764;SDS011;18338;53.240;8.798;2024-02-15T11:06:48;37.08;;;25.77;;
31764;SDS011;18338;53.240;8.798;2024-02-15T11:09:17;30.55;;;22.38;;
31764;SDS011;18338;53.240;8.798;2024-02-15T11:11:46;31.83;;;23.25;;
31764;SDS011;18338;53.240;8.798;2024-02-15T11:16:58;36.00;;;27.02;;
31764;SDS011;18338;53.240;8.798;2024-02-15T11:21:58;38.88;;;30.25;;
31764;SDS011;18338;53.240;8.798;2024-02-15T11:24:30;31.73;;;24.13;;
31764;SDS011;18338;53.240;8.798;2024-02-15T11:27:04;32.67;;;23.65;;
31764;SDS011;18338;53.240;8.798;2024-02-15T11:29:51;39.40;;;30.85;;
31764;SDS011;18338;53.240;8.798;2024-02-15T11:35:17;32.45;;;26.88;;
31764;SDS011;18338;53.240;8.798;2024-02-15T11:40:21;32.80;;;25.75;;
31764;SDS011;18338;53.240;8.798;2024-02-15T11:42:53;67.20;;;50.53;;
31764;SDS011;18338;53.240;8.798;2024-02-15T11:45:29;37.85;;;28.50;;
31764;SDS011;18338;53.240;8.798;2024-02-15T11:48:00;34.83;;;27.13;;
31764;SDS011;18338;53.240;8.798;2024-02-15T11:50:28;32.45;;;26.20;;
31764;SDS011;18338;53.240;8.798;2024-02-15T11:53:05;31.42;;;26.30;;
31764;SDS011;18338;53.240;8.798;2024-02-15T11:55:38;32.55;;;25.50;;
31764;SDS011;18338;53.240;8.798;2024-02-15T11:58:07;34.47;;;27.88;;
31764;SDS011;18338;53.240;8.798;2024-02-15T12:00:38;29.13;;;23.98;;
31764;SDS011;18338;53.240;8.798;2024-02-15T12:03:24;31.80;;;26.75;;
31764;SDS011;18338;53.240;8.798;2024-02-15T12:06:17;32.95;;;26.95;;
31764;SDS011;18338;53.240;8.798;2024-02-15T12:09:03;30.85;;;26.67;;
31764;SDS011;18338;53.240;8.798;2024-02-15T12:11:56;32.90;;;27.70;;
31764;SDS011;18338;53.240;8.798;2024-02-15T12:14:43;34.80;;;29.85;;
31764;SDS011;18338;53.240;8.798;2024-02-15T12:17:29;31.63;;;26.30;;
31764;SDS011;18338;53.240;8.798;2024-02-15T12:20:14;28.83;;;24.08;;
31764;SDS011;18338;53.240;8.798;2024-02-15T12:22:42;28.88;;;23.73;;
31764;SDS011;18338;53.240;8.798;2024-02-15T12:25:17;29.20;;;23.67;;
31764;SDS011;18338;53.240;8.798;2024-02-15T12:27:58;26.60;;;22.67;;
31764;SDS011;18338;53.240;8.798;2024-02-15T12:30:25;28.95;;;25.95;;
31764;SDS011;18338;53.240;8.798;2024-02-15T12:33:11;29.17;;;26.08;;
31764;SDS011;18338;53.240;8.798;2024-02-15T12:35:40;29.02;;;23.25;;
31764;SDS011;18338;53.240;8.798;2024-02-15T12:38:08;26.50;;;23.63;;
31764;SDS011;18338;53.240;8.798;2024-02-15T12:40:36;36.90;;;31.95;;
31764;SDS011;18338;53.240;8.798;2024-02-15T12:43:05;26.75;;;23.85;;
31764;SDS011;18338;53.240;8.798;2024-02-15T12:45:32;26.55;;;22.10;;
31764;SDS011;18338;53.240;8.798;2024-02-15T12:48:03;26.55;;;23.55;;
31764;SDS011;18338;53.240;8.798;2024-02-15T12:50:32;25.33;;;22.67;;
31764;SDS011;18338;53.240;8.798;2024-02-15T12:53:00;23.48;;;20.70;;
31764;SDS011;18338;53.240;8.798;2024-02-15T12:55:33;25.67;;;23.05;;
31764;SDS011;18338;53.240;8.798;2024-02-15T12:58:02;26.65;;;23.77;;
31764;SDS011;18338;53.240;8.798;2024-02-15T13:00:31;23.02;;;20.55;;
31764;SDS011;18338;53.240;8.798;2024-02-15T13:03:01;28.35;;;25.42;;
31764;SDS011;18338;53.240;8.798;2024-02-15T13:05:30;23.00;;;20.63;;
31764;SDS011;18338;53.240;8.798;2024-02-15T13:07:58;22.90;;;20.50;;
31764;SDS011;18338;53.240;8.798;2024-02-15T13:10:28;23.13;;;20.63;;
31764;SDS011;18338;53.240;8.798;2024-02-15T13:12:55;23.95;;;21.45;;
31764;SDS011;18338;53.240;8.798;2024-02-15T13:15:22;24.85;;;22.17;;
31764;SDS011;18338;53.240;8.798;2024-02-15T13:17:54;22.88;;;20.48;;
31764;SDS011;18338;53.240;8.798;2024-02-15T13:20:25;23.60;;;20.75;;
31764;SDS011;18338;53.240;8.798;2024-02-15T13:22:59;21.40;;;19.17;;
31764;SDS011;18338;53.240;8.798;2024-02-15T13:25:29;23.52;;;19.80;;
31764;SDS011;18338;53.240;8.798;2024-02-15T13:27:56;26.63;;;23.40;;
31764;SDS011;18338;53.240;8.798;2024-02-15T13:30:26;21.70;;;19.48;;
31764;SDS011;18338;53.240;8.798;2024-02-15T13:32:56;19.50;;;17.30;;
31764;SDS011;18338;53.240;8.798;2024-02-15T13:35:27;20.58;;;18.58;;
31764;SDS011;18338;53.240;8.798;2024-02-15T13:37:57;21.02;;;18.98;;
31764;SDS011;18338;53.240;8.798;2024-02-15T13:40:25;21.55;;;19.45;;
31764;SDS011;18338;53.240;8.798;2024-02-15T13:42:54;64.40;;;57.72;;
31764;SDS011;18338;53.240;8.798;2024-02-15T13:45:28;23.23;;;21.00;;
31764;SDS011;18338;53.240;8.798;2024-02-15T13:47:57;20.13;;;18.13;;
31764;SDS011;18338;53.240;8.798;2024-02-15T13:50:24;20.58;;;18.58;;
31764;SDS011;18338;53.240;8.798;2024-02-15T13:52:51;18.73;;;17.00;;
31764;SDS011;18338;53.240;8.798;2024-02-15T13:55:18;20.38;;;18.35;;
31764;SDS011;18338;53.240;8.798;2024-02-15T13:57:47;20.00;;;18.20;;
31764;SDS011;18338;53.240;8.798;2024-02-15T14:00:15;21.08;;;19.05;;
31764;SDS011;18338;53.240;8.798;2024-02-15T14:05:16;19.05;;;17.05;;
31764;SDS011;18338;53.240;8.798;2024-02-15T14:07:47;20.65;;;18.65;;
31764;SDS011;18338;53.240;8.798;2024-02-15T14:10:16;19.88;;;17.98;;
31764;SDS011;18338;53.240;8.798;2024-02-15T14:12:45;18.95;;;16.95;;
31764;SDS011;18338;53.240;8.798;2024-02-15T14:15:12;19.10;;;17.30;;
31764;SDS011;18338;53.240;8.798;2024-02-15T14:17:39;18.90;;;17.10;;
31764;SDS011;18338;53.240;8.798;2024-02-15T14:20:07;18.13;;;16.33;;
31764;SDS011;18338;53.240;8.798;2024-02-15T14:22:40;19.30;;;17.40;;
31764;SDS011;18338;53.240;8.798;2024-02-15T14:25:10;18.00;;;16.40;;
31764;SDS011;18338;53.240;8.798;2024-02-15T14:27:38;18.60;;;16.88;;
31764;SDS011;18338;53.240;8.798;2024-02-15T14:30:06;17.88;;;16.27;;
31764;SDS011;18338;53.240;8.798;2024-02-15T14:32:52;18.33;;;16.52;;
31764;SDS011;18338;53.240;8.798;2024-02-15T14:35:32;16.83;;;15.23;;
31764;SDS011;18338;53.240;8.798;2024-02-15T14:38:11;14.63;;;13.32;;
31764;SDS011;18338;53.240;8.798;2024-02-15T14:40:39;14.65;;;13.35;;
31764;SDS011;18338;53.240;8.798;2024-02-15T14:43:12;15.48;;;14.10;;
31764;SDS011;18338;53.240;8.798;2024-02-15T14:45:44;16.33;;;14.73;;
31764;SDS011;18338;53.240;8.798;2024-02-15T14:48:11;16.15;;;14.80;;
31764;SDS011;18338;53.240;8.798;2024-02-15T14:50:41;17.90;;;16.30;;
31764;SDS011;18338;53.240;8.798;2024-02-15T14:53:08;19.60;;;17.55;;
31764;SDS011;18338;53.240;8.798;2024-02-15T14:55:35;19.73;;;17.83;;